createdAt,value
2022-12-03T00:00:35.204Z,102006.59
2022-12-03T00:03:01.930Z,102002.59
2022-12-03T00:05:28.552Z,102000.59
2022-12-03T00:07:55.046Z,102017.78
2022-12-03T00:10:21.491Z,102005.75
2022-12-03T00:12:48.083Z,102004.63
2022-12-03T00:15:14.536Z,101996.88
2022-12-03T00:17:40.989Z,102000.25
2022-12-03T00:20:09.335Z,101996.53
2022-12-03T00:22:35.862Z,101998.56
2022-12-03T00:25:02.899Z,102000.78
2022-12-03T00:27:29.388Z,102001.69
2022-12-03T00:29:55.869Z,101990.97
2022-12-03T00:32:22.300Z,101996.81
2022-12-03T00:34:48.726Z,101996.06
2022-12-03T00:37:15.144Z,101992.34
2022-12-03T00:39:41.587Z,101996.41
2022-12-03T00:42:08.151Z,101996.47
2022-12-03T00:44:34.727Z,101995.78
2022-12-03T00:47:02.860Z,101997.81
2022-12-03T00:49:29.436Z,101994.97
2022-12-03T00:51:55.862Z,102000.28
2022-12-03T00:54:26.823Z,101989.88
2022-12-03T00:56:56.624Z,101999.31
2022-12-03T00:59:23.057Z,101990.09
2022-12-03T01:01:49.519Z,102004.34
2022-12-03T01:04:16.209Z,102000.00
2022-12-03T01:06:42.639Z,101992.47
2022-12-03T01:09:09.468Z,102000.34
2022-12-03T01:11:38.800Z,102005.03
2022-12-03T01:14:07.288Z,102009.88
2022-12-03T01:16:34.329Z,102003.00
2022-12-03T01:19:00.885Z,102009.34
2022-12-03T01:21:27.617Z,101999.47
2022-12-03T01:23:54.152Z,101996.84
2022-12-03T01:26:20.668Z,101998.81
2022-12-03T01:28:47.120Z,102003.00
2022-12-03T01:31:32.752Z,101997.53
2022-12-03T01:34:00.191Z,102003.53
2022-12-03T01:36:27.242Z,102007.41
2022-12-03T01:38:53.652Z,102007.59
2022-12-03T01:41:22.305Z,102008.91
2022-12-03T01:43:50.035Z,102009.78
2022-12-03T01:46:21.143Z,102009.59
2022-12-03T01:48:49.567Z,102006.94
2022-12-03T01:51:16.216Z,101992.25
2022-12-03T01:53:43.851Z,102004.94
2022-12-03T01:56:15.619Z,102002.75
2022-12-03T01:58:43.404Z,102000.41
2022-12-03T02:01:16.468Z,102001.59
2022-12-03T02:03:44.366Z,101995.41
2022-12-03T02:06:21.550Z,101999.94
2022-12-03T02:08:49.099Z,101995.22
2022-12-03T02:11:25.379Z,102005.06
2022-12-03T02:13:55.735Z,101998.75
2022-12-03T02:16:23.727Z,101997.88
2022-12-03T02:18:50.298Z,101996.22
2022-12-03T02:21:26.139Z,102002.09
2022-12-03T02:24:15.076Z,102001.91
2022-12-03T02:26:41.534Z,102006.75
2022-12-03T02:29:08.092Z,102007.09
2022-12-03T02:31:34.809Z,102001.25
2022-12-03T02:34:06.722Z,102004.25
2022-12-03T02:36:34.241Z,102007.78
2022-12-03T02:39:02.005Z,102000.88
2022-12-03T02:41:47.205Z,102003.91
2022-12-03T02:44:13.791Z,102000.84
2022-12-03T02:46:40.474Z,101995.66
2022-12-03T02:49:07.727Z,101996.56
2022-12-03T02:51:34.871Z,101999.72
2022-12-03T02:54:03.129Z,101992.41
2022-12-03T02:56:32.762Z,102000.56
2022-12-03T02:59:03.254Z,101997.25
2022-12-03T03:01:29.915Z,101994.91
2022-12-03T03:03:57.406Z,101992.94
2022-12-03T03:06:24.301Z,102002.63
2022-12-03T03:08:51.384Z,102000.28
2022-12-03T03:11:17.865Z,101992.94
2022-12-03T03:14:03.055Z,102000.50
2022-12-03T03:16:29.600Z,101992.97
2022-12-03T03:18:56.096Z,101995.78
2022-12-03T03:21:22.542Z,101998.78
2022-12-03T03:23:48.953Z,101991.59
2022-12-03T03:26:16.619Z,101992.44
2022-12-03T03:28:46.410Z,101994.09
2022-12-03T03:31:15.921Z,101985.13
2022-12-03T03:33:45.108Z,101981.09
2022-12-03T03:36:13.021Z,101984.09
2022-12-03T03:38:40.967Z,101986.44
2022-12-03T03:41:09.652Z,101975.44
2022-12-03T03:43:38.879Z,101978.41
2022-12-03T03:46:06.859Z,101980.75
2022-12-03T03:48:34.603Z,101976.09
2022-12-03T03:51:03.693Z,101980.59
2022-12-03T03:53:30.861Z,101982.44
2022-12-03T03:55:57.425Z,101981.09
2022-12-03T03:58:23.976Z,101977.59
2022-12-03T04:00:51.422Z,101975.09
2022-12-03T04:03:17.839Z,101981.25
2022-12-03T04:05:44.355Z,101979.94
2022-12-03T04:08:10.821Z,101981.28
2022-12-03T04:10:56.045Z,101979.97
2022-12-03T04:13:22.515Z,101978.59
2022-12-03T04:15:48.959Z,101979.13
2022-12-03T04:18:34.061Z,101982.47
2022-12-03T04:21:19.626Z,101978.44
2022-12-03T04:23:46.123Z,101978.44
2022-12-03T04:26:31.094Z,101979.28
2022-12-03T04:28:57.562Z,101979.63
2022-12-03T04:31:42.760Z,101975.44
2022-12-03T04:34:28.321Z,101977.63
2022-12-03T04:36:55.394Z,101974.13
2022-12-03T04:39:21.913Z,101975.59
2022-12-03T04:41:48.370Z,101978.28
2022-12-03T04:44:33.416Z,101976.13
2022-12-03T04:47:00.618Z,101969.28
2022-12-03T04:49:27.039Z,101975.44
2022-12-03T04:51:53.495Z,101975.13
2022-12-03T04:54:21.262Z,101973.97
2022-12-03T04:56:47.706Z,101970.13
2022-12-03T04:59:16.432Z,101974.81
2022-12-03T05:01:44.044Z,101977.97
2022-12-03T05:04:11.632Z,101969.28
2022-12-03T05:06:38.274Z,101973.81
2022-12-03T05:09:06.307Z,101970.66
2022-12-03T05:11:33.283Z,101972.63
2022-12-03T05:13:59.741Z,101963.94
2022-12-03T05:16:28.885Z,101968.63
2022-12-03T05:18:55.365Z,101966.47
2022-12-03T05:21:21.980Z,101966.97
2022-12-03T05:23:48.754Z,101967.97
2022-12-03T05:26:15.570Z,101972.28
2022-12-03T05:28:41.995Z,101967.13
2022-12-03T05:31:08.754Z,101974.31
2022-12-03T05:33:39.496Z,101968.81
2022-12-03T05:36:09.549Z,101961.63
2022-12-03T05:38:36.003Z,101961.28
2022-12-03T05:41:03.324Z,101955.13
2022-12-03T05:43:29.751Z,101963.47
2022-12-03T05:45:56.216Z,101971.31
2022-12-03T05:48:22.690Z,101969.13
2022-12-03T05:50:49.082Z,101965.31
2022-12-03T05:53:17.195Z,101954.63
2022-12-03T05:55:43.593Z,101966.13
2022-12-03T05:58:10.053Z,101963.78
2022-12-03T06:00:42.392Z,101959.81
2022-12-03T06:03:10.575Z,101961.13
2022-12-03T06:05:37.519Z,101966.31
2022-12-03T06:08:04.292Z,101962.63
2022-12-03T06:10:30.852Z,101967.97
2022-12-03T06:12:57.420Z,101969.47
2022-12-03T06:15:23.910Z,101974.31
2022-12-03T06:17:50.923Z,101962.31
2022-12-03T06:20:19.539Z,101969.47
2022-12-03T06:22:46.343Z,101965.97
2022-12-03T06:25:13.918Z,101962.00
2022-12-03T06:27:40.339Z,101961.63
2022-12-03T06:30:08.900Z,101960.81
2022-12-03T06:32:35.732Z,101962.16
2022-12-03T06:35:02.976Z,101960.81
2022-12-03T06:37:29.582Z,101963.63
2022-12-03T06:39:55.987Z,101961.47
2022-12-03T06:42:22.499Z,101961.28
2022-12-03T06:44:48.937Z,101962.66
2022-12-03T06:47:15.392Z,101958.63
2022-12-03T06:49:41.876Z,101964.13
2022-12-03T06:52:08.338Z,101959.13
2022-12-03T06:54:34.912Z,101958.97
2022-12-03T06:57:02.006Z,101969.66
2022-12-03T06:59:28.419Z,101959.97
2022-12-03T07:01:54.966Z,101960.97
2022-12-03T07:04:21.508Z,101962.66
2022-12-03T07:06:47.909Z,101959.31
2022-12-03T07:09:16.876Z,101953.28
2022-12-03T07:11:43.391Z,101960.97
2022-12-03T07:14:11.335Z,101962.00
2022-12-03T07:16:39.113Z,101953.28
2022-12-03T07:19:06.689Z,101948.28
2022-12-03T07:21:33.277Z,101948.13
2022-12-03T07:23:59.986Z,101946.31
2022-12-03T07:26:26.426Z,101949.97
2022-12-03T07:28:53.062Z,101943.63
2022-12-03T07:31:19.572Z,101948.81
2022-12-03T07:33:46.248Z,101943.81
2022-12-03T07:36:12.833Z,101932.31
2022-12-03T07:38:39.459Z,101938.97
2022-12-03T07:41:06.046Z,101939.13
2022-12-03T07:43:33.092Z,101934.13
2022-12-03T07:45:59.704Z,101944.13
2022-12-03T07:48:27.145Z,101944.63
2022-12-03T07:50:54.436Z,101938.47
2022-12-03T07:53:21.044Z,101941.47
2022-12-03T07:55:47.521Z,101944.63
2022-12-03T07:58:13.975Z,101934.78
2022-12-03T08:00:40.504Z,101935.78
2022-12-03T08:03:07.161Z,101946.63
2022-12-03T08:05:33.666Z,101937.63
2022-12-03T08:08:01.096Z,101951.47
2022-12-03T08:10:27.864Z,101948.81
2022-12-03T08:12:58.067Z,101934.97
2022-12-03T08:15:27.729Z,101945.63
2022-12-03T08:18:02.770Z,101940.97
2022-12-03T08:20:34.641Z,101930.94
2022-12-03T08:23:06.642Z,101932.31
2022-12-03T08:25:33.561Z,101925.78
2022-12-03T08:28:15.451Z,101929.44
2022-12-03T08:30:43.602Z,101924.63
2022-12-03T08:33:35.881Z,101934.28
2022-12-03T08:36:15.895Z,101925.28
2022-12-03T08:38:49.223Z,101926.97
2022-12-03T08:41:16.106Z,101928.78
2022-12-03T08:43:43.775Z,101936.63
2022-12-03T08:46:18.877Z,101931.94
2022-12-03T08:48:48.942Z,101934.78
2022-12-03T08:51:25.516Z,101935.63
2022-12-03T08:54:01.484Z,101928.94
2022-12-03T08:56:30.602Z,101927.94
2022-12-03T08:59:25.291Z,101930.94
2022-12-03T09:01:53.471Z,101931.28
2022-12-03T09:04:35.856Z,101922.78
2022-12-03T09:07:03.208Z,101927.78
2022-12-03T09:09:30.061Z,101925.28
2022-12-03T09:11:56.674Z,101930.94
2022-12-03T09:14:23.554Z,101923.28
2022-12-03T09:16:55.267Z,101918.91
2022-12-03T09:19:26.534Z,101909.09
2022-12-03T09:21:53.848Z,101921.09
2022-12-03T09:24:20.530Z,101928.44
2022-12-03T09:26:47.059Z,101921.09
2022-12-03T09:29:13.517Z,101924.28
2022-12-03T09:31:40.448Z,101925.94
2022-12-03T09:34:07.857Z,101930.94
2022-12-03T09:36:34.883Z,101921.63
2022-12-03T09:39:01.414Z,101922.13
2022-12-03T09:41:28.648Z,101926.28
2022-12-03T09:44:05.158Z,101924.63
2022-12-03T09:46:34.006Z,101920.94
2022-12-03T09:49:02.250Z,101918.25
2022-12-03T09:51:33.486Z,101921.75
2022-12-03T09:54:03.192Z,101918.75
2022-12-03T09:56:30.007Z,101914.94
2022-12-03T09:58:56.471Z,101919.28
2022-12-03T10:01:25.008Z,101910.25
2022-12-03T10:03:54.390Z,101901.75
2022-12-03T10:06:23.771Z,101905.09
2022-12-03T10:08:53.515Z,101900.06
2022-12-03T10:11:22.416Z,101904.59
2022-12-03T10:13:52.647Z,101903.75
2022-12-03T10:16:20.841Z,101902.72
2022-12-03T10:18:51.437Z,101902.56
2022-12-03T10:21:19.345Z,101899.06
2022-12-03T10:23:48.465Z,101900.91
2022-12-03T10:26:19.260Z,101896.53
2022-12-03T10:28:47.441Z,101892.00
2022-12-03T10:31:15.286Z,101892.69
2022-12-03T10:33:45.110Z,101886.19
2022-12-03T10:36:20.514Z,101886.03
2022-12-03T10:39:19.957Z,101887.16
2022-12-03T10:41:46.505Z,101883.19
2022-12-03T10:44:21.237Z,101872.72
2022-12-03T10:47:06.138Z,101866.88
2022-12-03T10:49:32.832Z,101865.19
2022-12-03T10:51:59.396Z,101864.03
2022-12-03T10:54:27.363Z,101861.53
2022-12-03T10:56:53.997Z,101850.84
2022-12-03T10:59:27.135Z,101856.84
2022-12-03T11:01:53.783Z,101855.00
2022-12-03T11:04:23.399Z,101854.47
2022-12-03T11:06:50.384Z,101851.78
2022-12-03T11:09:25.011Z,101859.50
2022-12-03T11:11:52.441Z,101857.00
2022-12-03T11:14:54.078Z,101853.69
2022-12-03T11:17:42.703Z,101853.50
2022-12-03T11:20:34.007Z,101846.97
2022-12-03T11:23:00.448Z,101845.28
2022-12-03T11:25:27.145Z,101840.13
2022-12-03T11:28:12.269Z,101839.09
2022-12-03T11:30:51.098Z,101840.63
2022-12-03T11:33:26.531Z,101832.78
2022-12-03T11:36:05.284Z,101835.47
2022-12-03T11:38:37.876Z,101826.78
2022-12-03T11:41:16.360Z,101830.47
2022-12-03T11:43:57.616Z,101826.31
2022-12-03T11:46:28.622Z,101831.44
2022-12-03T11:48:59.152Z,101825.28
2022-12-03T11:51:28.156Z,101824.28
2022-12-03T11:53:57.634Z,101814.13
2022-12-03T11:56:29.379Z,101814.25
2022-12-03T11:59:03.972Z,101812.06
2022-12-03T12:01:39.049Z,101809.09
2022-12-03T12:04:07.453Z,101809.44
2022-12-03T12:06:47.467Z,101814.16
2022-12-03T12:09:47.545Z,101812.75
2022-12-03T12:12:38.874Z,101802.06
2022-12-03T12:15:34.075Z,101802.78
2022-12-03T12:18:38.284Z,101791.91
2022-12-03T12:21:39.787Z,101794.22
2022-12-03T12:24:31.213Z,101793.75
2022-12-03T12:26:59.623Z,101783.34
2022-12-03T12:29:26.158Z,101779.69
2022-12-03T12:31:59.864Z,101772.34
2022-12-03T12:34:26.401Z,101776.34
2022-12-03T12:36:57.426Z,101772.97
2022-12-03T12:39:25.260Z,101772.28
2022-12-03T12:41:51.738Z,101768.66
2022-12-03T12:44:23.152Z,101769.34
2022-12-03T12:46:52.506Z,101767.00
2022-12-03T12:49:23.401Z,101769.97
2022-12-03T12:51:50.543Z,101762.63
2022-12-03T12:54:20.809Z,101758.59
2022-12-03T12:56:50.158Z,101765.31
2022-12-03T12:59:21.151Z,101760.31
2022-12-03T13:01:49.937Z,101758.84
2022-12-03T13:04:22.594Z,101750.75
2022-12-03T13:06:53.045Z,101753.59
2022-12-03T13:09:23.886Z,101751.09
2022-12-03T13:12:03.986Z,101754.50
2022-12-03T13:14:34.866Z,101752.81
2022-12-03T13:17:10.815Z,101745.13
2022-12-03T13:20:03.263Z,101743.59
2022-12-03T13:22:27.678Z,101747.00
2022-12-03T13:24:59.366Z,101742.31
2022-12-03T13:27:29.632Z,101739.47
2022-12-03T13:30:00.881Z,101727.97
2022-12-03T13:32:31.685Z,101728.09
2022-12-03T13:35:07.188Z,101736.94
2022-12-03T13:37:34.092Z,101733.06
2022-12-03T13:40:12.064Z,101739.28
2022-12-03T13:42:38.588Z,101730.69
2022-12-03T13:45:13.898Z,101737.63
2022-12-03T13:47:42.112Z,101734.66
2022-12-03T13:50:39.271Z,101738.81
2022-12-03T13:53:11.553Z,101737.84
2022-12-03T13:55:44.811Z,101725.44
2022-12-03T13:58:11.308Z,101727.47
2022-12-03T14:00:37.907Z,101731.66
2022-12-03T14:03:05.031Z,101718.66
2022-12-03T14:05:31.450Z,101721.59
2022-12-03T14:08:01.586Z,101711.09
2022-12-03T14:10:29.309Z,101718.31
2022-12-03T14:12:56.266Z,101717.81
2022-12-03T14:15:22.829Z,101711.69
2022-12-03T14:17:49.334Z,101709.00
2022-12-03T14:20:15.939Z,101717.03
2022-12-03T14:22:42.346Z,101715.47
2022-12-03T14:25:09.654Z,101711.00
2022-12-03T14:27:36.425Z,101716.50
2022-12-03T14:30:04.817Z,101712.63
2022-12-03T14:32:31.799Z,101695.66
2022-12-03T14:34:58.168Z,101695.78
2022-12-03T14:37:24.650Z,101694.97
2022-12-03T14:39:51.081Z,101697.66
2022-12-03T14:42:18.239Z,101692.44
2022-12-03T14:44:49.616Z,101697.81
2022-12-03T14:47:19.270Z,101696.84
2022-12-03T14:49:46.363Z,101700.16
2022-12-03T14:52:13.054Z,101699.97
2022-12-03T14:54:42.345Z,101696.88
2022-12-03T14:57:11.375Z,101698.19
2022-12-03T14:59:39.407Z,101693.22
2022-12-03T15:02:06.249Z,101703.72
2022-12-03T15:04:32.879Z,101708.72
2022-12-03T15:06:59.531Z,101703.84
2022-12-03T15:09:26.159Z,101708.16
2022-12-03T15:11:52.566Z,101703.81
2022-12-03T15:14:19.001Z,101703.69
2022-12-03T15:16:45.452Z,101710.34
2022-12-03T15:19:14.276Z,101709.28
2022-12-03T15:21:40.763Z,101710.44
2022-12-03T15:24:07.844Z,101705.78
2022-12-03T15:26:34.289Z,101711.09
2022-12-03T15:29:00.815Z,101709.78
2022-12-03T15:31:27.452Z,101713.16
2022-12-03T15:33:53.887Z,101708.13
2022-12-03T15:36:20.332Z,101703.94
2022-12-03T15:38:47.483Z,101710.47
2022-12-03T15:41:34.203Z,101706.81
2022-12-03T15:44:02.688Z,101697.59
2022-12-03T15:46:31.166Z,101707.59
2022-12-03T15:48:57.983Z,101713.16
2022-12-03T15:51:25.221Z,101701.53
2022-12-03T15:53:51.973Z,101702.13
2022-12-03T15:56:18.509Z,101703.38
2022-12-03T15:58:45.229Z,101699.94
2022-12-03T16:01:13.543Z,101708.47
2022-12-03T16:03:40.696Z,101705.50
2022-12-03T16:06:07.708Z,101705.16
2022-12-03T16:08:34.290Z,101708.34
2022-12-03T16:11:00.961Z,101698.28
2022-12-03T16:13:27.659Z,101706.34
2022-12-03T16:15:54.217Z,101709.00
2022-12-03T16:18:20.675Z,101705.28
2022-12-03T16:20:47.105Z,101704.97
2022-12-03T16:23:13.659Z,101703.81
2022-12-03T16:25:40.407Z,101701.19
2022-12-03T16:28:06.955Z,101696.47
2022-12-03T16:30:33.976Z,101694.94
2022-12-03T16:33:00.505Z,101698.97
2022-12-03T16:35:28.163Z,101692.19
2022-12-03T16:37:54.589Z,101688.66
2022-12-03T16:40:21.068Z,101691.97
2022-12-03T16:42:47.504Z,101693.81
2022-12-03T16:45:40.541Z,101700.69
2022-12-03T16:48:06.943Z,101694.69
2022-12-03T16:50:33.739Z,101688.16
2022-12-03T16:53:00.290Z,101689.50
2022-12-03T16:55:27.402Z,101684.69
2022-12-03T16:57:53.878Z,101686.16
2022-12-03T17:00:21.844Z,101680.81
2022-12-03T17:02:49.540Z,101683.31
2022-12-03T17:05:16.219Z,101683.47
2022-12-03T17:07:42.848Z,101683.47
2022-12-03T17:10:10.064Z,101683.66
2022-12-03T17:13:07.233Z,101697.81
2022-12-03T17:15:24.283Z,101685.50
2022-12-03T17:17:50.745Z,101685.38
2022-12-03T17:20:17.858Z,101691.69
2022-12-03T17:22:44.489Z,101692.72
2022-12-03T17:25:11.410Z,101682.34
2022-12-03T17:27:44.638Z,101686.31
2022-12-03T17:30:12.968Z,101694.81
2022-12-03T17:32:39.771Z,101697.19
2022-12-03T17:35:06.787Z,101683.19
2022-12-03T17:37:33.491Z,101690.44
2022-12-03T17:40:00.174Z,101694.47
2022-12-03T17:42:27.341Z,101692.81
2022-12-03T17:44:53.746Z,101687.34
2022-12-03T17:47:24.067Z,101697.66
2022-12-03T17:49:50.564Z,101688.00
2022-12-03T17:52:17.117Z,101686.63
2022-12-03T17:55:09.039Z,101685.28
2022-12-03T17:57:29.951Z,101683.63
2022-12-03T17:59:57.012Z,101690.06
2022-12-03T18:02:23.824Z,101684.25
2022-12-03T18:04:50.323Z,101688.25
2022-12-03T18:07:16.688Z,101682.78
2022-12-03T18:09:43.220Z,101684.94
2022-12-03T18:12:09.682Z,101686.94
2022-12-03T18:14:36.429Z,101690.50
2022-12-03T18:17:03.261Z,101686.06
2022-12-03T18:19:29.762Z,101671.72
2022-12-03T18:21:56.242Z,101688.09
2022-12-03T18:24:22.984Z,101681.75
2022-12-03T18:26:50.224Z,101682.63
2022-12-03T18:29:16.726Z,101672.75
2022-12-03T18:31:43.184Z,101667.41
2022-12-03T18:34:09.685Z,101667.94
2022-12-03T18:36:36.651Z,101668.13
2022-12-03T18:39:05.943Z,101665.31
2022-12-03T18:41:33.268Z,101671.25
2022-12-03T18:44:03.198Z,101667.34
2022-12-03T18:49:17.549Z,101658.63
2022-12-03T18:51:44.086Z,101656.97
2022-12-03T18:54:13.769Z,101653.53
2022-12-03T18:56:43.167Z,101650.50
2022-12-03T18:59:09.678Z,101652.88
2022-12-03T19:01:36.489Z,101654.63
2022-12-03T19:04:03.861Z,101663.66
2022-12-03T19:06:30.665Z,101656.66
2022-12-03T19:08:57.694Z,101661.97
2022-12-03T19:11:24.280Z,101656.31
2022-12-03T19:13:51.346Z,101650.41
2022-12-03T19:16:17.931Z,101657.09
2022-12-03T19:18:44.909Z,101657.44
2022-12-03T19:21:16.045Z,101657.56
2022-12-03T19:24:04.287Z,101666.28
2022-12-03T19:26:30.150Z,101662.81
2022-12-03T19:28:56.698Z,101660.41
2022-12-03T19:31:23.264Z,101665.31
2022-12-03T19:33:50.674Z,101668.28
2022-12-03T19:36:26.784Z,101661.25
2022-12-03T19:38:57.299Z,101660.66
2022-12-03T19:41:30.317Z,101667.81
2022-12-03T19:43:57.880Z,101656.13
2022-12-03T19:46:28.558Z,101658.16
2022-12-03T19:48:54.995Z,101661.69
2022-12-03T19:51:36.744Z,101658.03
2022-12-03T19:54:05.851Z,101668.00
2022-12-03T19:56:32.665Z,101661.19
2022-12-03T19:58:59.289Z,101659.41
2022-12-03T20:01:29.011Z,101666.16
2022-12-03T20:03:57.650Z,101659.63
2022-12-03T20:06:29.122Z,101656.63
2022-12-03T20:08:57.510Z,101661.00
2022-12-03T20:11:27.052Z,101659.97
2022-12-03T20:13:56.660Z,101661.66
2022-12-03T20:16:24.361Z,101662.94
2022-12-03T20:18:55.220Z,101657.03
2022-12-03T20:21:21.669Z,101659.34
2022-12-03T20:23:48.265Z,101657.13
2022-12-03T20:26:17.944Z,101647.09
2022-12-03T20:28:45.432Z,101651.09
2022-12-03T20:31:15.255Z,101657.72
2022-12-03T20:33:44.852Z,101662.94
2022-12-03T20:36:14.162Z,101663.66
2022-12-03T20:38:41.015Z,101659.16
2022-12-03T20:41:11.241Z,101654.72
2022-12-03T20:43:38.367Z,101667.16
2022-12-03T20:46:09.913Z,101663.13
2022-12-03T20:48:36.968Z,101656.31
2022-12-03T20:51:08.574Z,101658.63
2022-12-03T20:53:35.772Z,101654.59
2022-12-03T20:56:03.531Z,101652.44
2022-12-03T20:58:31.225Z,101662.31
2022-12-03T21:01:26.601Z,101653.44
2022-12-03T21:03:55.177Z,101653.59
2022-12-03T21:06:22.473Z,101651.94
2022-12-03T21:08:49.336Z,101644.94
2022-12-03T21:11:18.732Z,101648.22
2022-12-03T21:13:46.361Z,101642.75
2022-12-03T21:16:15.926Z,101646.94
2022-12-03T21:18:42.789Z,101645.06
2022-12-03T21:21:12.098Z,101645.13
2022-12-03T21:23:38.639Z,101643.91
2022-12-03T21:26:21.891Z,101647.31
2022-12-03T21:28:50.622Z,101637.63
2022-12-03T21:31:25.721Z,101640.78
2022-12-03T21:33:56.390Z,101642.63
2022-12-03T21:36:23.980Z,101642.63
2022-12-03T21:38:50.697Z,101645.25
2022-12-03T21:41:17.822Z,101648.91
2022-12-03T21:43:44.828Z,101642.41
2022-12-03T21:47:12.826Z,101637.19
2022-12-03T21:49:02.603Z,101645.59
2022-12-03T21:51:29.584Z,101646.41
2022-12-03T21:53:56.057Z,101647.34
2022-12-03T21:56:22.487Z,101639.22
2022-12-03T21:58:48.935Z,101647.63
2022-12-03T22:01:19.367Z,101647.63
2022-12-03T22:03:46.120Z,101653.91
2022-12-03T22:06:13.351Z,101650.63
2022-12-03T22:08:40.123Z,101652.22
2022-12-03T22:11:18.952Z,101643.91
2022-12-03T22:13:45.919Z,101655.44
2022-12-03T22:16:14.791Z,101644.78
2022-12-03T22:18:41.489Z,101650.09
2022-12-03T22:21:13.723Z,101648.09
2022-12-03T22:23:40.671Z,101643.16
2022-12-03T22:26:11.792Z,101637.69
2022-12-03T22:28:38.439Z,101640.50
2022-12-03T22:31:06.947Z,101641.66
2022-12-03T22:33:34.527Z,101625.13
2022-12-03T22:36:04.396Z,101629.91
2022-12-03T22:38:31.979Z,101630.22
2022-12-03T22:40:59.459Z,101626.66
2022-12-03T22:43:26.066Z,101628.13
2022-12-03T22:45:54.684Z,101627.03
2022-12-03T22:48:22.614Z,101629.53
2022-12-03T22:50:50.763Z,101624.06
2022-12-03T22:53:17.842Z,101617.22
2022-12-03T22:55:44.624Z,101616.69
2022-12-03T22:58:11.507Z,101610.75
2022-12-03T23:00:40.773Z,101615.53
2022-12-03T23:03:08.112Z,101610.34
2022-12-03T23:05:39.230Z,101611.06
2022-12-03T23:08:08.787Z,101601.66
2022-12-03T23:10:38.571Z,101604.50
2022-12-03T23:13:06.424Z,101608.56
2022-12-03T23:15:33.317Z,101607.75
2022-12-03T23:18:00.234Z,101604.50
2022-12-03T23:20:26.785Z,101602.41
2022-12-03T23:22:55.124Z,101606.19
2022-12-03T23:25:22.239Z,101598.53
2022-12-03T23:27:48.722Z,101601.03
2022-12-03T23:30:16.712Z,101599.50
2022-12-03T23:32:44.307Z,101595.03
2022-12-03T23:35:13.145Z,101598.22
2022-12-03T23:37:43.336Z,101597.66
2022-12-03T23:40:11.067Z,101596.75
2022-12-03T23:42:37.643Z,101596.22
2022-12-03T23:45:04.840Z,101594.34
2022-12-03T23:47:31.436Z,101579.53
2022-12-03T23:49:57.934Z,101584.59
2022-12-03T23:52:24.507Z,101594.16
2022-12-03T23:54:51.023Z,101590.88
2022-12-03T23:57:18.240Z,101593.06
2022-12-03T23:59:44.696Z,101582.41
